• Join FlightAware (Why Join?)
  • Login
  • US Flag 
08:47AM EDT


 

Airport Tracker/Info


-or-


 

Live Flight TrackerFlight Track Log ✈ N717AN ✈ 01-Oct-2013 ✈ SBGR / GRU - KDFW

Flight Track Log - Related Links

Times and Time Zones

All times are in EDT time to prevent confusion due to time zone crossing. See the N717AN flight status page for this flight to view local times or setup timezone preferences in your user account.

Time Position Orientation Groundspeed Altitude Reporting Facility
EDT Latitude Longitude Course Direction KTS MPH feet Rate Location/Type
08:57PM -23.4320 -46.4760 90° East 105 121  Level FlightAware
08:57PM -23.4280 -46.4610 74° East 177 204 4,380 Level FlightAware
08:57PM -23.4220 -46.4380 74° East 186 214 3,300 5,400 Climbing FlightAware
08:58PM -23.4170 -46.4220 71° East 190 219 4,000 1,560 Climbing FlightAware
08:58PM -23.4100 -46.3990 72° East 226 260 4,400 1,200 Climbing FlightAware
08:59PM -23.4020 -46.3710 73° East 258 297 4,900 1,800 Climbing FlightAware
08:59PM -23.3960 -46.3500 73° East 270 311 5,600 2,700 Climbing FlightAware
08:59PM -23.3860 -46.3160 72° East 280 322 6,700 2,760 Climbing FlightAware
09:00PM -23.3770 -46.2880 71° East 286 329 7,700 2,460 Climbing FlightAware
09:00PM -23.3700 -46.2680 69° East 289 333 8,400 2,400 Climbing FlightAware
09:00PM -23.3590 -46.2520 53° Northeast 290 334 8,900 3,000 Climbing FlightAware
09:00PM -23.3530 -46.2460 43° Northeast 296 341 9,100 2,400 Climbing FlightAware
09:00PM -23.3470 -46.2430 25° Northeast 293 337 9,300 2,400 Climbing FlightAware
09:00PM -23.3330 -46.2380 18° North 301 346 9,700 2,220 Climbing FlightAware
09:01PM -23.2860 -46.2250 14° North 316 364 11,000 1,620 Climbing FlightAware
09:02PM -23.2310 -46.2110 13° North 363 418 11,600 1,260 Climbing FlightAware
09:02PM -23.1690 -46.1930 15° North 397 457 12,500 2,100 Climbing FlightAware
09:03PM -23.0980 -46.1770 12° North 391 450 14,300 2,640 Climbing FlightAware
09:03PM -23.0440 -46.1800 357° North 435 501 15,500 2,580 Climbing FlightAware
09:04PM -22.9760 -46.1920 351° North 405 466 17,100 2,460 Climbing FlightAware
09:04PM -22.9210 -46.2020 350° North 410 472 18,300 2,280 Climbing FlightAware
09:05PM -22.8430 -46.2150 351° North 410 472 19,800 1,980 Climbing FlightAware
09:06PM -22.7760 -46.2270 351° North 421 484 20,800 1,800 Climbing FlightAware
09:06PM -22.7060 -46.2390 351° North 437 503 21,900 1,860 Climbing FlightAware
09:07PM -22.6440 -46.2500 351° North 436 502 22,900 1,860 Climbing FlightAware
09:07PM -22.5620 -46.2640 351° North 442 509 24,100 1,800 Climbing FlightAware
09:08PM -22.4890 -46.2760 351° North 456 525 25,200 1,800 Climbing FlightAware
09:08PM -22.4270 -46.2870 351° North 452 520 26,100 1,620 Climbing FlightAware
09:09PM -22.3520 -46.2990 352° North 456 525 27,000 1,500 Climbing FlightAware
09:10PM -22.2660 -46.3140 351° North 471 542 28,000 1,320 Climbing FlightAware
09:10PM -22.1780 -46.3290 351° North 475 547 28,800 1,080 Climbing FlightAware
09:11PM -22.1030 -46.3410 352° North 491 565 29,400 1,320 Climbing FlightAware
09:12PM -22.0200 -46.3570 350° North 492 566 30,400 1,320 Climbing FlightAware
09:12PM -21.9440 -46.3720 350° North 489 563 31,000 420 Climbing FlightAware
09:13PM -21.8460 -46.3890 351° North 492 566 31,000  Level FlightAware
09:13PM -21.7950 -46.3970 352° North 492 566 31,000 120 Level FlightAware
09:14PM -21.6860 -46.4150 351° North 495 570 31,200 900 Climbing FlightAware
09:15PM -21.6140 -46.4260 352° North 492 566 32,100 1,380 Climbing FlightAware
09:15PM -21.5140 -46.4430 351° North 484 557 33,000 660 Climbing FlightAware
09:16PM -21.4360 -46.4550 352° North 481 554 33,000  Level FlightAware
09:16PM -21.3630 -46.4670 351° North 482 555 33,000  Level FlightAware
09:17PM -21.2850 -46.4800 351° North 482 555 33,000  Level FlightAware
09:18PM -21.2030 -46.4940 351° North 484 557 33,000  Level FlightAware
09:18PM -21.1220 -46.5070 351° North 486 559 33,000  Level FlightAware
09:19PM -21.0530 -46.5180 352° North 487 560 33,000  Level FlightAware
09:19PM -20.9710 -46.5310 352° North 489 563 33,000  Level FlightAware
09:20PM -20.8910 -46.5440 351° North 489 563 33,000  Level FlightAware
09:21PM -20.8100 -46.5580 351° North 490 564 33,000  Level FlightAware
09:21PM -20.7280 -46.5710 352° North 491 565 33,000  Level FlightAware
09:22PM -20.6570 -46.5820 352° North 492 566 33,000  Level FlightAware
09:22PM -20.5700 -46.5960 351° North 492 566 33,000  Level FlightAware
09:23PM -20.4890 -46.6100 351° North 492 566 33,000  Level FlightAware
09:23PM -20.4180 -46.6230 350° North 493 567 33,000  Level FlightAware
09:24PM -20.3350 -46.6380 350° North 494 568 33,000  Level FlightAware
09:25PM -20.2640 -46.6510 350° North 495 570 33,000  Level FlightAware
09:25PM -20.1950 -46.6640 350° North 495 570 33,000  Level FlightAware
09:26PM -20.0880 -46.6830 351° North 494 568 33,000  Level FlightAware
09:27PM -20.0010 -46.6990 350° North 494 568 33,000  Level FlightAware
09:27PM -19.9280 -46.7120 350° North 495 570 33,000  Level FlightAware
09:28PM -19.8470 -46.7270 350° North 495 570 33,000  Level FlightAware
09:28PM -19.7660 -46.7410 351° North 495 570 33,000  Level FlightAware
09:29PM -19.6920 -46.7550 350° North 495 570 33,000  Level FlightAware
09:29PM -19.6130 -46.7690 351° North 495 570 33,000  Level FlightAware
09:30PM -19.5300 -46.7840 350° North 495 570 33,000  Level FlightAware
09:31PM -19.4540 -46.7980 350° North 495 570 33,000  Level FlightAware
09:31PM -19.3730 -46.8120 351° North 496 571 33,000  Level FlightAware
09:32PM -19.2990 -46.8250 351° North 497 572 33,000  Level FlightAware
09:32PM -19.2180 -46.8400 350° North 497 572 33,000  Level FlightAware
09:33PM -19.1330 -46.8530 352° North 498 573 33,000  Level FlightAware
09:33PM -19.0600 -46.8640 352° North 498 573 33,000  Level FlightAware
09:34PM -18.9730 -46.8780 351° North 497 572 33,000  Level FlightAware
09:35PM -18.8940 -46.8900 352° North 496 571 33,000  Level FlightAware
09:35PM -18.8190 -46.9020 351° North 494 568 33,000  Level FlightAware
09:36PM -18.7350 -46.9150 352° North 493 567 33,000  Level FlightAware
09:36PM -18.6550 -46.9260 353° North 492 566 33,000  Level FlightAware
09:37PM -18.5780 -46.9360 353° North 491 565 33,000  Level FlightAware
09:38PM -18.4970 -46.9460 353° North 490 564 33,000  Level FlightAware
09:38PM -18.4270 -46.9560 352° North 492 566 33,000  Level FlightAware
09:39PM -18.3500 -46.9660 353° North 493 567 33,000  Level FlightAware
09:39PM -18.2470 -46.9800 353° North 493 567 33,000  Level FlightAware
09:40PM -18.1690 -46.9900 353° North 491 565 33,000  Level FlightAware
09:41PM -18.0860 -47.0010 353° North 490 564 33,000  Level FlightAware
09:41PM -18.0220 -47.0100 352° North 493 567 33,000  Level FlightAware
09:42PM -17.9510 -47.0210 352° North 493 567 33,000  Level FlightAware
09:43PM -17.8280 -47.0530 346° North 481 554 33,000  Level FlightAware
09:43PM -17.7820 -47.0870 325° Northwest 473 544 33,000  Level FlightAware
09:43PM -17.7380 -47.1400 311° West 465 535 33,000  Level FlightAware
09:44PM -17.6900 -47.2060 307° West 465 535 33,000  Level FlightAware
09:45PM -17.6340 -47.2850 307° West 466 536 33,000  Level FlightAware
09:45PM -17.5930 -47.3390 309° West 466 536 33,000  Level FlightAware
09:46PM -17.5330 -47.4040 314° West 468 539 33,000  Level FlightAware
09:47PM -17.4920 -47.4520 312° West 467 537 33,000  Level FlightAware
09:47PM -17.4270 -47.5250 313° West 469 540 33,000  Level FlightAware
09:48PM -17.3670 -47.5940 312° West 469 540 33,000  Level FlightAware
09:49PM -17.3210 -47.6470 312° West 469 540 33,000  Level FlightAware
09:49PM -17.2760 -47.7010 311° West 469 540 33,000 780 Level FlightAware
09:50PM -17.1990 -47.7850 314° West 465 535 34,000 780 Climbing FlightAware
09:50PM -17.1520 -47.8390 312° West 465 535 34,000  Level FlightAware
09:51PM -17.1110 -47.8870 312° West 465 535 34,000  Level FlightAware
09:52PM -17.0670 -47.9380 312° West 465 535 34,000  Level FlightAware
09:52PM -16.9910 -48.0210 314° West 467 537 34,000  Level FlightAware
09:53PM -16.9360 -48.0820 313° West 464 534 34,000  Level FlightAware
09:53PM -16.8800 -48.1460 312° West 465 535 34,000  Level FlightAware
09:54PM -16.8280 -48.2050 313° West 466 536 34,000  Level FlightAware
09:55PM -16.7620 -48.2790 313° West 467 537 34,000  Level FlightAware
09:55PM -16.7110 -48.3360 313° West 467 537 34,000  Level FlightAware
09:56PM -16.6590 -48.3960 312° West 469 540 34,000  Level FlightAware
09:57PM -16.6080 -48.4530 313° West 467 537 34,000  Level FlightAware
09:57PM -16.5480 -48.5200 313° West 465 535 34,000  Level FlightAware
09:58PM -16.4990 -48.5750 313° West 465 535 34,000  Level FlightAware
09:58PM -16.4440 -48.6360 313° West 464 534 34,000  Level FlightAware
09:59PM -16.3970 -48.6900 312° West 465 535 34,000  Level FlightAware
10:00PM -16.3410 -48.7520 313° West 466 536 34,000  Level FlightAware
10:00PM -16.2890 -48.8100 313° West 467 537 34,000  Level FlightAware
10:01PM -16.2320 -48.8740 313° West 468 539 34,000  Level FlightAware
10:01PM -16.1790 -48.9330 313° West 469 540 34,000  Level FlightAware
10:02PM -16.1090 -49.0120 313° West 468 539 34,000  Level FlightAware
10:03PM -16.0620 -49.0630 314° West 466 536 34,000  Level FlightAware
10:03PM -15.9990 -49.1330 313° West 467 537 34,000  Level FlightAware
10:04PM -15.9560 -49.1820 312° West 468 539 34,000  Level FlightAware
10:05PM -15.9010 -49.2430 313° West 469 540 34,000  Level FlightAware
10:05PM -15.8540 -49.2950 313° West 466 536 34,000  Level FlightAware
10:06PM -15.8030 -49.3520 313° West 466 536 34,000  Level FlightAware
10:06PM -15.7610 -49.3990 313° West 466 536 34,000  Level FlightAware
10:07PM -15.7140 -49.4510 313° West 466 536 34,000  Level FlightAware
10:07PM -15.6470 -49.5250 313° West 471 542 34,000  Level FlightAware
10:08PM -15.5960 -49.5810 313° West 471 542 34,000  Level FlightAware
10:09PM -15.5510 -49.6320 312° West 471 542 34,000  Level FlightAware
10:09PM -15.5050 -49.6830 313° West 471 542 34,000  Level FlightAware
10:10PM -15.4090 -49.7880 313° West 471 542 34,000  Level FlightAware
10:11PM -15.3540 -49.8500 313° West 471 542 34,000  Level FlightAware
10:11PM -15.3080 -49.9000 314° West 471 542 34,000  Level FlightAware
10:12PM -15.2620 -49.9520 313° West 471 542 34,000  Level FlightAware
10:13PM -15.2160 -50.0030 313° West 471 542 34,000  Level FlightAware
10:13PM -15.1710 -50.0530 313° West 471 542 34,000  Level FlightAware
10:14PM -15.1280 -50.1010 313° West 471 542 34,000  Level FlightAware
10:14PM -15.0810 -50.1530 313° West 471 542 34,000  Level FlightAware
10:15PM -15.0350 -50.2030 314° West 471 542 34,000  Level FlightAware
10:16PM -14.9900 -50.2540 312° West 471 542 34,000  Level FlightAware
10:16PM -14.9440 -50.3040 314° West 471 542 34,000  Level FlightAware
10:17PM -14.8990 -50.3550 312° West 471 542 34,000  Level FlightAware
10:17PM -14.8540 -50.4050 313° West 471 542 34,000  Level FlightAware
10:18PM -14.8080 -50.4560 313° West 471 542 34,000  Level FlightAware
10:19PM -14.7630 -50.5060 313° West 471 542 34,000  Level FlightAware
10:19PM -14.7170 -50.5560 314° West 471 542 34,000  Level FlightAware
10:22PM -14.5048 -50.7545 318° Northwest  Level Estimated
10:23PM -14.4104 -50.8425 318° Northwest  Level Estimated
10:24PM -14.3161 -50.9305 318° Northwest  Level Estimated
10:25PM -14.2216 -51.0185 318° Northwest  Level Estimated
10:26PM -14.1272 -51.1063 318° Northwest  Level Estimated
10:27PM -14.0327 -51.1941 318° Northwest  Level Estimated
10:28PM -13.9382 -51.2818 318° Northwest  Level Estimated
10:29PM -13.8436 -51.3694 318° Northwest  Level Estimated
10:30PM -13.7490 -51.4570 318° Northwest  Level Estimated
10:31PM -13.6544 -51.5445 318° Northwest  Level Estimated
10:32PM -13.5598 -51.6320 318° Northwest  Level Estimated
10:33PM -13.4651 -51.7193 318° Northwest  Level Estimated
10:34PM -13.3704 -51.8066 318° Northwest  Level Estimated
10:35PM -13.2757 -51.8938 318° Northwest  Level Estimated
10:36PM -13.1809 -51.9810 318° Northwest  Level Estimated
10:37PM -13.0861 -52.0681 318° Northwest  Level Estimated
10:38PM -12.9913 -52.1551 318° Northwest  Level Estimated
10:39PM -12.8965 -52.2420 318° Northwest  Level Estimated
10:40PM -12.8016 -52.3289 318° Northwest  Level Estimated
10:41PM -12.7067 -52.4157 318° Northwest  Level Estimated
10:42PM -12.6117 -52.5025 318° Northwest  Level Estimated
10:43PM -12.5168 -52.5892 318° Northwest  Level Estimated
10:44PM -12.4218 -52.6758 318° Northwest  Level Estimated
10:45PM -12.3268 -52.7624 318° Northwest  Level Estimated
10:46PM -12.2317 -52.8489 318° Northwest  Level Estimated
10:47PM -12.1366 -52.9353 318° Northwest  Level Estimated
10:48PM -12.0415 -53.0217 318° Northwest  Level Estimated
10:49PM -11.9464 -53.1080 318° Northwest  Level Estimated
10:50PM -11.8513 -53.1943 318° Northwest  Level Estimated
10:51PM -11.7561 -53.2805 318° Northwest  Level Estimated
10:52PM -11.6609 -53.3666 318° Northwest  Level Estimated
10:53PM -11.5656 -53.4527 318° Northwest  Level Estimated
10:54PM -11.4704 -53.5387 318° Northwest  Level Estimated
10:55PM -11.3751 -53.6247 319° Northwest  Level Estimated
10:56PM -11.2798 -53.7106 319° Northwest  Level Estimated
10:57PM -11.1845 -53.7964 319° Northwest  Level Estimated
10:58PM -11.0891 -53.8822 319° Northwest  Level Estimated
10:59PM -10.9937 -53.9679 319° Northwest  Level Estimated
11:00PM -10.8983 -54.0536 319° Northwest  Level Estimated
11:01PM -10.8029 -54.1392 319° Northwest  Level Estimated
11:02PM -10.7074 -54.2248 319° Northwest  Level Estimated
11:03PM -10.6120 -54.3103 319° Northwest  Level Estimated
11:04PM -10.5165 -54.3958 319° Northwest  Level Estimated
11:05PM -10.4209 -54.4812 319° Northwest  Level Estimated
11:06PM -10.3244 -54.5674 319° Northwest  Level Estimated
11:07PM -10.2279 -54.6536 319° Northwest  Level Estimated
11:08PM -10.1313 -54.7397 319° Northwest  Level Estimated
11:09PM -10.0347 -54.8258 319° Northwest  Level Estimated
11:10PM -9.9381 -54.9118 319° Northwest  Level Estimated
11:11PM -9.8414 -54.9978 319° Northwest  Level Estimated
11:12PM -9.7448 -55.0838 319° Northwest  Level Estimated
11:13PM -9.6481 -55.1696 319° Northwest  Level Estimated
11:14PM -9.5514 -55.2555 319° Northwest  Level Estimated
11:15PM -9.4546 -55.3413 319° Northwest  Level Estimated
11:16PM -9.3579 -55.4270 319° Northwest  Level Estimated
11:17PM -9.2611 -55.5127 319° Northwest  Level Estimated
11:18PM -9.1643 -55.5983 319° Northwest  Level Estimated
11:19PM -9.0675 -55.6839 319° Northwest  Level Estimated
11:20PM -8.9707 -55.7694 319° Northwest  Level Estimated
11:21PM -8.8738 -55.8549 319° Northwest  Level Estimated
11:22PM -8.7770 -55.9404 319° Northwest  Level Estimated
11:23PM -8.6801 -56.0258 319° Northwest  Level Estimated
11:24PM -8.5832 -56.1111 319° Northwest  Level Estimated
11:25PM -8.4863 -56.1965 319° Northwest  Level Estimated
11:26PM -8.3893 -56.2817 319° Northwest  Level Estimated
11:27PM -8.2924 -56.3670 319° Northwest  Level Estimated
11:28PM -8.1954 -56.4522 319° Northwest  Level Estimated
11:29PM -8.0984 -56.5373 319° Northwest  Level Estimated
11:30PM -8.0014 -56.6224 319° Northwest  Level Estimated
11:31PM -7.9042 -56.7076 319° Northwest  Level Estimated
11:32PM -7.8070 -56.7928 319° Northwest  Level Estimated
11:33PM -7.7097 -56.8779 319° Northwest  Level Estimated
11:34PM -7.6125 -56.9631 319° Northwest  Level Estimated
11:35PM -7.5152 -57.0481 319° Northwest  Level Estimated
11:36PM -7.4179 -57.1331 319° Northwest  Level Estimated
11:37PM -7.3206 -57.2181 319° Northwest  Level Estimated
11:38PM -7.2233 -57.3031 319° Northwest  Level Estimated
11:39PM -7.1260 -57.3880 319° Northwest  Level Estimated
11:40PM -7.0286 -57.4728 319° Northwest  Level Estimated
11:41PM -6.9313 -57.5577 319° Northwest  Level Estimated
11:42PM -6.8339 -57.6425 319° Northwest  Level Estimated
11:43PM -6.7365 -57.7272 319° Northwest  Level Estimated
11:44PM -6.6391 -57.8120 319° Northwest  Level Estimated
11:45PM -6.5417 -57.8967 319° Northwest  Level Estimated
11:46PM -6.4442 -57.9813 319° Northwest  Level Estimated
11:47PM -6.3468 -58.0660 319° Northwest  Level Estimated
11:48PM -6.2493 -58.1506 319° Northwest  Level Estimated
11:49PM -6.1520 -58.2350 319° Northwest  Level Estimated
11:50PM -6.0547 -58.3194 319° Northwest  Level Estimated
11:51PM -5.9574 -58.4037 319° Northwest  Level Estimated
11:52PM -5.8600 -58.4881 319° Northwest  Level Estimated
11:53PM -5.7627 -58.5724 319° Northwest  Level Estimated
11:54PM -5.6653 -58.6567 319° Northwest  Level Estimated
11:55PM -5.5679 -58.7409 319° Northwest  Level Estimated
11:56PM -5.4705 -58.8251 319° Northwest  Level Estimated
11:57PM -5.3731 -58.9093 319° Northwest  Level Estimated
11:58PM -5.2757 -58.9935 319° Northwest  Level Estimated
11:59PM -5.1782 -59.0776 319° Northwest  Level Estimated
12:00AM -5.0808 -59.1617 319° Northwest  Level Estimated
12:01AM -4.9833 -59.2458 319° Northwest  Level Estimated
12:02AM -4.8859 -59.3299 319° Northwest  Level Estimated
12:03AM -4.7884 -59.4139 319° Northwest  Level Estimated
12:04AM -4.6909 -59.4979 319° Northwest  Level Estimated
12:05AM -4.5935 -59.5819 319° Northwest  Level Estimated
12:06AM -4.4960 -59.6659 319° Northwest  Level Estimated
12:07AM -4.3984 -59.7498 319° Northwest  Level Estimated
12:08AM -4.3009 -59.8337 319° Northwest  Level Estimated
12:09AM -4.2034 -59.9176 319° Northwest  Level Estimated
12:10AM -4.1059 -60.0015 319° Northwest  Level Estimated
12:11AM -4.0083 -60.0854 319° Northwest  Level Estimated
12:12AM -3.9107 -60.1692 319° Northwest  Level Estimated
12:13AM -3.8132 -60.2530 319° Northwest  Level Estimated
12:14AM -3.7156 -60.3368 319° Northwest  Level Estimated
12:15AM -3.6180 -60.4206 319° Northwest  Level Estimated
12:16AM -3.5204 -60.5044 319° Northwest  Level Estimated
12:17AM -3.4228 -60.5881 319° Northwest  Level Estimated
12:18AM -3.3252 -60.6719 319° Northwest  Level Estimated
12:19AM -3.2276 -60.7556 319° Northwest  Level Estimated
12:20AM -3.1300 -60.8393 319° Northwest  Level Estimated
12:21AM -3.0324 -60.9230 319° Northwest  Level Estimated
12:22AM -2.9347 -61.0066 319° Northwest  Level Estimated
12:23AM -2.8371 -61.0903 319° Northwest  Level Estimated
12:24AM -2.7394 -61.1739 319° Northwest  Level Estimated
12:25AM -2.6418 -61.2575 319° Northwest  Level Estimated
12:26AM -2.5441 -61.3411 319° Northwest  Level Estimated
12:27AM -2.4465 -61.4247 319° Northwest  Level Estimated
12:28AM -2.3488 -61.5083 319° Northwest  Level Estimated
12:29AM -2.2511 -61.5919 319° Northwest  Level Estimated
12:30AM -2.1534 -61.6755 319° Northwest  Level Estimated
12:31AM -2.0558 -61.7590 319° Northwest  Level Estimated
12:32AM -1.9581 -61.8425 319° Northwest  Level Estimated
12:33AM -1.8604 -61.9261 319° Northwest  Level Estimated
12:34AM -1.7627 -62.0096 319° Northwest  Level Estimated
12:35AM -1.6650 -62.0931 319° Northwest  Level Estimated
12:36AM -1.5673 -62.1766 319° Northwest  Level Estimated
12:37AM -1.4696 -62.2601 319° Northwest  Level Estimated
12:38AM -1.3719 -62.3436 319° Northwest  Level Estimated
12:39AM -1.2742 -62.4271 319° Northwest  Level Estimated
12:40AM -1.1765 -62.5106 319° Northwest  Level Estimated
12:41AM -1.0787 -62.5940 319° Northwest  Level Estimated
12:42AM -0.9810 -62.6775 320° Northwest  Level Estimated
12:43AM -0.8833 -62.7610 320° Northwest  Level Estimated
12:44AM -0.7856 -62.8444 320° Northwest  Level Estimated
12:45AM -0.6879 -62.9279 320° Northwest  Level Estimated
12:46AM -0.5901 -63.0113 320° Northwest  Level Estimated
12:47AM -0.4924 -63.0948 320° Northwest  Level Estimated
12:48AM -0.3947 -63.1782 320° Northwest  Level Estimated
12:49AM -0.2969 -63.2617 320° Northwest  Level Estimated
12:50AM -0.1992 -63.3451 320° Northwest  Level Estimated
12:51AM -0.1015 -63.4286 320° Northwest  Level Estimated
12:52AM -0.0037 -63.5120 320° Northwest  Level Estimated
12:53AM 0.0940 -63.5954 320° Northwest  Level Estimated
12:54AM 0.1917 -63.6789 320° Northwest  Level Estimated
12:55AM 0.2894 -63.7623 320° Northwest  Level Estimated
12:56AM 0.3872 -63.8457 320° Northwest  Level Estimated
12:57AM 0.4849 -63.9292 320° Northwest  Level Estimated
12:58AM 0.5825 -64.0125 320° Northwest  Level Estimated
12:59AM 0.6800 -64.0958 320° Northwest  Level Estimated
01:00AM 0.7776 -64.1791 320° Northwest  Level Estimated
01:01AM 0.8751 -64.2624 320° Northwest  Level Estimated
01:02AM 0.9727 -64.3457 320° Northwest  Level Estimated
01:03AM 1.0702 -64.4291 320° Northwest  Level Estimated
01:04AM 1.1678 -64.5124 320° Northwest  Level Estimated
01:05AM 1.2653 -64.5957 319° Northwest  Level Estimated
01:06AM 1.3629 -64.6791 319° Northwest  Level Estimated
01:07AM 1.4604 -64.7624 319° Northwest  Level Estimated
01:08AM 1.5580 -64.8458 319° Northwest  Level Estimated
01:09AM 1.6555 -64.9291 319° Northwest  Level Estimated
01:10AM 1.7530 -65.0125 319° Northwest  Level Estimated
01:11AM 1.8505 -65.0959 319° Northwest  Level Estimated
01:12AM 1.9481 -65.1793 319° Northwest  Level Estimated
01:13AM 2.0456 -65.2627 319° Northwest  Level Estimated
01:14AM 2.1431 -65.3461 319° Northwest  Level Estimated
01:15AM 2.2406 -65.4295 319° Northwest  Level Estimated
01:16AM 2.3381 -65.5129 319° Northwest  Level Estimated
01:17AM 2.4356 -65.5964 319° Northwest  Level Estimated
01:18AM 2.5331 -65.6798 319° Northwest  Level Estimated
01:19AM 2.6306 -65.7633 319° Northwest  Level Estimated
01:20AM 2.7281 -65.8468 319° Northwest  Level Estimated
01:21AM 2.8256 -65.9303 319° Northwest  Level Estimated
01:22AM 2.9230 -66.0138 319° Northwest  Level Estimated
01:23AM 3.0205 -66.0973 319° Northwest  Level Estimated
01:24AM 3.1180 -66.1808 319° Northwest  Level Estimated
01:25AM 3.2154 -66.2644 319° Northwest  Level Estimated
01:26AM 3.3129 -66.3479 319° Northwest  Level Estimated
01:27AM 3.4103 -66.4315 319° Northwest  Level Estimated
01:28AM 3.5079 -66.5153 319° Northwest  Level Estimated
01:29AM 3.6055 -66.5990 319° Northwest  Level Estimated
01:30AM 3.7031 -66.6828 319° Northwest  Level Estimated
01:31AM 3.8006 -66.7666 319° Northwest  Level Estimated
01:32AM 3.8982 -66.8504 319° Northwest  Level Estimated
01:33AM 3.9958 -66.9343 319° Northwest  Level Estimated
01:34AM 4.0933 -67.0181 319° Northwest  Level Estimated
01:35AM 4.1909 -67.1020 319° Northwest  Level Estimated
01:36AM 4.2884 -67.1859 319° Northwest  Level Estimated
01:37AM 4.3859 -67.2698 319° Northwest  Level Estimated
01:38AM 4.4834 -67.3538 319° Northwest  Level Estimated
01:39AM 4.5809 -67.4377 319° Northwest  Level Estimated
01:40AM 4.6785 -67.5217 319° Northwest  Level Estimated
01:41AM 4.7759 -67.6057 319° Northwest  Level Estimated
01:42AM 4.8734 -67.6898 319° Northwest  Level Estimated
01:43AM 4.9707 -67.7737 319° Northwest  Level Estimated
01:44AM 5.0680 -67.8576 319° Northwest  Level Estimated
01:45AM 5.1653 -67.9416 319° Northwest  Level Estimated
01:46AM 5.2626 -68.0256 319° Northwest  Level Estimated
01:47AM 5.3598 -68.1096 319° Northwest  Level Estimated
01:48AM 5.4570 -68.1936 319° Northwest  Level Estimated
01:49AM 5.5543 -68.2777 319° Northwest  Level Estimated
01:50AM 5.6515 -68.3618 319° Northwest  Level Estimated
01:51AM 5.7487 -68.4459 319° Northwest  Level Estimated
01:52AM 5.8459 -68.5301 319° Northwest  Level Estimated
01:53AM 5.9431 -68.6143 319° Northwest  Level Estimated
01:54AM 6.0403 -68.6985 319° Northwest  Level Estimated
01:55AM 6.1374 -68.7827 319° Northwest  Level Estimated
01:56AM 6.2346 -68.8670 319° Northwest  Level Estimated
01:56AM 3.8710 -73.1630 319° Northwest 492 566 36,000  Level FlightAware
01:56AM 3.9230 -73.2220 311° West 494 568 36,000  Level FlightAware
01:57AM 3.9760 -73.2810 312° West 493 567 36,000  Level FlightAware
01:57AM 4.0330 -73.3440 312° West 492 566 36,000  Level FlightAware
01:58AM 4.0860 -73.4040 312° West 492 566 36,000  Level FlightAware
01:59AM 4.1330 -73.4600 310° West 493 567 36,000  Level FlightAware
01:59AM 4.1850 -73.5250 309° West 493 567 36,000  Level FlightAware
02:00AM 4.2390 -73.5900 310° West 495 570 36,000  Level FlightAware
02:00AM 4.2860 -73.6470 310° West 494 568 36,000  Level FlightAware
02:01AM 4.3390 -73.7110 310° West 494 568 36,000  Level FlightAware
02:02AM 4.3880 -73.7700 310° West 495 570 36,000  Level FlightAware
02:02AM 4.4440 -73.8370 310° West 496 571 36,000  Level FlightAware
02:03AM 4.4910 -73.8940 310° West 496 571 36,000  Level FlightAware
02:03AM 4.5450 -73.9580 310° West 497 572 36,000  Level FlightAware
02:04AM 4.5970 -74.0210 310° West 497 572 36,000  Level FlightAware
02:04AM 4.6500 -74.0850 310° West 497 572 36,000  Level FlightAware
02:05AM 4.6980 -74.1430 310° West 498 573 36,000  Level FlightAware
02:06AM 4.7500 -74.2060 310° West 497 572 36,000  Level FlightAware
02:06AM 4.8040 -74.2720 309° West 498 573 36,000  Level FlightAware
02:07AM 4.8510 -74.3330 308° West 500 575 36,000  Level FlightAware
02:07AM 4.8950 -74.4030 302° West 501 577 36,000  Level FlightAware
02:08AM 4.9390 -74.4760 301° West 500 575 36,000  Level FlightAware
02:09AM 4.9760 -74.5390 301° West 500 575 36,000  Level FlightAware
02:09AM 5.0210 -74.6140 301° West 500 575 36,000  Level FlightAware
02:10AM 5.0640 -74.6850 301° West 501 577 36,000  Level FlightAware
02:10AM 5.1030 -74.7500 301° West 502 578 36,000  Level FlightAware
02:11AM 5.1440 -74.8190 301° West 503 579 36,000  Level FlightAware
02:11AM 5.1800 -74.8780 301° West 504 580 36,000  Level FlightAware
02:12AM 5.2220 -74.9290 310° West 500 575 36,000  Level FlightAware
02:12AM 5.2720 -74.9650 324° Northwest 494 568 36,000  Level FlightAware
02:13AM 5.3420 -75.0110 327° Northwest 494 568 36,000  Level FlightAware
02:13AM 5.4100 -75.0540 328° Northwest 494 568 36,000  Level FlightAware
02:14AM 5.4740 -75.0940 328° Northwest 495 570 36,000  Level FlightAware
02:15AM 5.5410 -75.1370 327° Northwest 496 571 36,000  Level FlightAware
02:15AM 5.6140 -75.1840 327° Northwest 497 572 36,000  Level FlightAware
02:16AM 5.6720 -75.2210 328° Northwest 497 572 36,000  Level FlightAware
02:16AM 5.7380 -75.2640 327° Northwest 497 572 36,000  Level FlightAware
02:17AM 5.7980 -75.3030 327° Northwest 497 572 36,000  Level FlightAware
02:18AM 5.8570 -75.3420 327° Northwest 497 572 36,000  Level FlightAware
02:18AM 5.9160 -75.3810 327° Northwest 497 572 36,000  Level FlightAware
02:19AM 6.0000 -75.4410 325° Northwest 501 577 36,000  Level FlightAware
02:19AM 6.0550 -75.4990 314° West 504 580 36,000  Level FlightAware
02:20AM 6.1060 -75.5520 314° West 504 580 36,000  Level FlightAware
02:20AM 6.1560 -75.6040 314° West 504 580 36,000  Level FlightAware
02:21AM 6.2070 -75.6570 314° West 504 580 36,000  Level FlightAware
02:22AM 6.2560 -75.7090 313° West 504 580 36,000  Level FlightAware
02:22AM 6.3060 -75.7600 315° West 504 580 36,000  Level FlightAware
02:23AM 6.3960 -75.8840 306° West 500 575 36,000  Level FlightAware
02:23AM 6.4430 -75.9370 312° West 499 574 36,000  Level FlightAware
02:24AM 6.4970 -75.9970 312° West 499 574 36,000  Level FlightAware
02:24AM 6.5510 -76.0580 312° West 500 575 36,000  Level FlightAware
02:25AM 6.6130 -76.1270 312° West 500 575 36,000  Level FlightAware
02:26AM 6.6600 -76.1800 312° West 500 575 36,000  Level FlightAware
02:26AM 6.7370 -76.2660 312° West 502 578 36,000  Level FlightAware
02:27AM 6.7910 -76.3270 312° West 503 579 36,000  Level FlightAware
02:28AM 6.8450 -76.3880 312° West 502 578 36,000  Level FlightAware
02:28AM 6.8990 -76.4480 312° West 503 579 36,000  Level FlightAware
02:29AM 6.9540 -76.5110 311° West 502 578 36,000  Level FlightAware
02:29AM 7.0090 -76.5720 312° West 504 580 36,000  Level FlightAware
02:30AM 7.0630 -76.6330 312° West 504 580 36,000  Level FlightAware
02:31AM 7.1170 -76.6940 312° West 503 579 36,000  Level FlightAware
02:31AM 7.1710 -76.7550 312° West 502 578 36,000  Level FlightAware
02:32AM 7.2240 -76.8140 312° West 502 578 36,000  Level FlightAware
02:32AM 7.2800 -76.8770 312° West 500 575 36,000  Level FlightAware
02:33AM 7.3340 -76.9380 312° West 499 574 36,000  Level FlightAware
02:33AM 7.3880 -76.9990 312° West 499 574 36,000  Level FlightAware
02:34AM 7.4420 -77.0600 312° West 498 573 36,000  Level FlightAware
02:35AM 7.4950 -77.1210 311° West 499 574 36,000  Level FlightAware
02:35AM 7.5480 -77.1810 312° West 499 574 36,000  Level FlightAware
02:36AM 7.6010 -77.2400 312° West 501 577 36,000  Level FlightAware
02:36AM 7.6560 -77.3030 311° West 502 578 36,000  Level FlightAware
02:37AM 7.7110 -77.3640 312° West 501 577 36,000  Level FlightAware
02:38AM 7.7640 -77.4240 312° West 500 575 36,000  Level FlightAware
02:38AM 7.8190 -77.4860 312° West 498 573 36,000  Level FlightAware
02:39AM 7.8740 -77.5460 313° West 499 574 36,000  Level FlightAware
02:39AM 7.9280 -77.6060 312° West 499 574 36,000  Level FlightAware
02:40AM 7.9820 -77.6660 312° West 499 574 36,000  Level FlightAware
02:40AM 8.0370 -77.7270 312° West 499 574 36,000  Level FlightAware
02:41AM 8.0900 -77.7860 312° West 498 573 36,000  Level FlightAware
02:42AM 8.1450 -77.8470 312° West 498 573 36,000  Level FlightAware
02:42AM 8.2000 -77.9090 312° West 498 573 36,000  Level FlightAware
02:43AM 8.2540 -77.9690 312° West 498 573 36,000  Level FlightAware
02:43AM 8.3080 -78.0290 312° West 499 574 36,000  Level FlightAware
02:44AM 8.3610 -78.0880 312° West 501 577 36,000  Level FlightAware
02:45AM 8.4180 -78.1470 314° West 499 574 36,000  Level FlightAware
02:45AM 8.4800 -78.2010 319° Northwest 498 573 36,000  Level FlightAware
02:46AM 8.5420 -78.2530 320° Northwest 497 572 36,000  Level FlightAware
02:46AM 8.6030 -78.3040 320° Northwest 497 572 36,000  Level FlightAware
02:47AM 8.6840 -78.3720 320° Northwest 498 573 36,000  Level FlightAware
02:48AM 8.7370 -78.4160 321° Northwest 498 573 36,000  Level FlightAware
02:48AM 8.8080 -78.4760 320° Northwest 498 573 36,000  Level FlightAware
02:49AM 8.8770 -78.5350 320° Northwest 498 573 36,000  Level FlightAware
02:49AM 8.9400 -78.5880 320° Northwest 500 575 36,000  Level FlightAware
02:50AM 9.0020 -78.6400 320° Northwest 499 574 36,000  Level FlightAware
02:51AM 9.0650 -78.6930 320° Northwest 500 575 36,000  Level FlightAware
02:51AM 9.1270 -78.7450 320° Northwest 500 575 36,000  Level FlightAware
02:52AM 9.1990 -78.8050 321° Northwest 500 575 36,000  Level FlightAware
02:53AM 9.2620 -78.8590 320° Northwest 499 574 36,000  Level FlightAware
02:53AM 9.3260 -78.9130 320° Northwest 492 566 36,000  Level FlightAware
02:54AM 9.3960 -78.9720 320° Northwest 492 566 36,000  Level FlightAware
02:54AM 9.4670 -79.0320 320° Northwest 491 565 36,000  Level FlightAware
02:55AM 9.5190 -79.0760 320° Northwest 491 565 36,000  Level FlightAware
02:56AM 9.5820 -79.1300 320° Northwest 491 565 36,000  Level FlightAware
02:56AM 9.6520 -79.1890 320° Northwest 491 565 36,000  Level FlightAware
02:57AM 9.7070 -79.2350 320° Northwest 491 565 36,000  Level FlightAware
02:57AM 9.7680 -79.2870 320° Northwest 490 564 36,000  Level FlightAware
02:58AM 9.8320 -79.3410 320° Northwest 491 565 36,000  Level FlightAware
02:58AM 9.8940 -79.3940 320° Northwest 489 563 36,000  Level FlightAware
02:59AM 9.9550 -79.4450 321° Northwest 490 564 36,000  Level FlightAware
03:00AM 10.0370 -79.5170 319° Northwest 490 564 36,000  Level FlightAware
03:00AM 10.1040 -79.5720 321° Northwest 493 567 36,000  Level FlightAware
03:01AM 10.1650 -79.6240 320° Northwest 493 567 36,000  Level FlightAware
03:02AM 10.2240 -79.6740 320° Northwest 493 567 36,000  Level FlightAware
03:02AM 10.2870 -79.7280 320° Northwest 493 567 36,000  Level FlightAware
03:03AM 10.3660 -79.7950 320° Northwest 493 567 36,000  Level FlightAware
03:04AM 10.4360 -79.8550 320° Northwest 491 565 36,000  Level FlightAware
03:04AM 10.5010 -79.9100 320° Northwest 490 564 36,000  Level FlightAware
03:05AM 10.5600 -79.9610 320° Northwest 489 563 36,000  Level FlightAware
03:05AM 10.6230 -80.0140 320° Northwest 489 563 36,000  Level FlightAware
03:06AM 10.6830 -80.0660 320° Northwest 490 564 36,000  Level FlightAware
03:07AM 10.7530 -80.1260 320° Northwest 490 564 36,000  Level FlightAware
03:07AM 10.8150 -80.1790 320° Northwest 490 564 36,000  Level FlightAware
03:08AM 10.8770 -80.2320 320° Northwest 489 563 36,000  Level FlightAware
03:08AM 10.9400 -80.2860 320° Northwest 491 565 36,000  Level FlightAware
03:09AM 11.0030 -80.3400 320° Northwest 492 566 36,000  Level FlightAware
03:10AM 11.0620 -80.3900 320° Northwest 491 565 36,000  Level FlightAware
03:10AM 11.1270 -80.4470 319° Northwest 489 563 36,000  Level FlightAware
03:11AM 11.1960 -80.5060 320° Northwest 488 562 36,000  Level FlightAware
03:11AM 11.2540 -80.5550 320° Northwest 489 563 36,000  Level FlightAware
03:12AM 11.3200 -80.6130 319° Northwest 489 563 36,000  Level FlightAware
03:13AM 11.3720 -80.6600 318° Northwest 489 563 36,000  Level FlightAware
03:13AM 11.4240 -80.7060 319° Northwest 489 563 36,000  Level FlightAware
03:14AM 11.4750 -80.7510 319° Northwest 489 563 36,000  Level FlightAware
03:14AM 11.5270 -80.7970 319° Northwest 489 563 36,000  Level FlightAware
03:15AM 11.5790 -80.8440 318° Northwest 489 563 36,000  Level FlightAware
03:16AM 11.6320 -80.8900 320° Northwest 489 563 36,000  Level FlightAware
03:16AM 11.6840 -80.9360 319° Northwest 489 563 36,000  Level FlightAware
03:17AM 11.7380 -80.9840 319° Northwest 489 563 36,000  Level FlightAware
03:17AM 11.7900 -81.0300 319° Northwest 489 563 36,000  Level FlightAware
03:18AM 11.8420 -81.0770 319° Northwest 489 563 36,000  Level FlightAware
03:19AM 11.8960 -81.1250 319° Northwest 489 563 36,000  Level FlightAware
03:19AM 11.9480 -81.1710 319° Northwest 489 563 36,000  Level FlightAware
03:20AM 12.0020 -81.2190 319° Northwest 489 563 36,000  Level FlightAware
03:21AM 12.0550 -81.2660 319° Northwest 489 563 36,000  Level FlightAware
03:21AM 12.1080 -81.3130 319° Northwest 489 563 36,000  Level FlightAware
03:24AM 12.3478 -81.5080 322° Northwest  Level FlightAware Approximate
03:25AM 12.4483 -81.5899 322° Northwest  Level FlightAware Approximate
03:26AM 12.5489 -81.6719 321° Northwest  Level FlightAware Approximate
03:27AM 12.6397 -81.7650 312° West  Level FlightAware Approximate
03:28AM 12.7249 -81.8635 312° West  Level FlightAware Approximate
03:29AM 12.8102 -81.9621 312° West  Level FlightAware Approximate
03:30AM 12.8954 -82.0608 312° West  Level FlightAware Approximate
03:31AM 12.9806 -82.1595 312° West  Level FlightAware Approximate
03:32AM 13.0657 -82.2583 312° West  Level FlightAware Approximate
03:33AM 13.1508 -82.3571 311° West  Level FlightAware Approximate
03:34AM 13.2359 -82.4561 311° West  Level FlightAware Approximate
03:35AM 13.3209 -82.5551 311° West  Level FlightAware Approximate
03:36AM 13.4059 -82.6541 311° West  Level FlightAware Approximate
03:37AM 13.4933 -82.7510 313° West  Level FlightAware Approximate
03:38AM 13.5810 -82.8477 313° West  Level FlightAware Approximate
03:39AM 13.6686 -82.9444 313° West  Level FlightAware Approximate
03:40AM 13.7562 -83.0412 313° West  Level FlightAware Approximate
03:41AM 13.8437 -83.1380 313° West  Level FlightAware Approximate
03:42AM 13.9312 -83.2350 313° West  Level FlightAware Approximate
03:43AM 14.0187 -83.3320 313° West  Level FlightAware Approximate
03:44AM 14.1286 -83.3927 342° North  Level FlightAware Approximate
03:45AM 14.2509 -83.4333 342° North  Level FlightAware Approximate
03:46AM 14.3732 -83.4740 342° North  Level FlightAware Approximate
03:47AM 14.4956 -83.5147 342° North  Level FlightAware Approximate
03:48AM 14.6179 -83.5554 342° North  Level FlightAware Approximate
03:49AM 14.7402 -83.5962 342° North  Level FlightAware Approximate
03:50AM 14.8624 -83.6370 342° North  Level FlightAware Approximate
03:51AM 14.9847 -83.6778 342° North  Level FlightAware Approximate
03:52AM 15.1070 -83.7188 342° North  Level FlightAware Approximate
03:53AM 15.2293 -83.7597 342° North  Level FlightAware Approximate
03:54AM 15.3431 -83.8208 331° Northwest  Level FlightAware Approximate
03:55AM 15.4552 -83.8860 331° Northwest  Level FlightAware Approximate
03:56AM 15.5672 -83.9513 331° Northwest  Level FlightAware Approximate
03:57AM 15.6793 -84.0167 331° Northwest  Level FlightAware Approximate
03:58AM 15.7913 -84.0821 331° Northwest  Level FlightAware Approximate
03:59AM 15.9033 -84.1476 331° Northwest  Level FlightAware Approximate
04:00AM 16.0152 -84.2132 331° Northwest  Level FlightAware Approximate
04:01AM 16.1272 -84.2789 331° Northwest  Level FlightAware Approximate
04:02AM 16.2391 -84.3446 331° Northwest  Level FlightAware Approximate
04:03AM 16.3512 -84.4101 332° Northwest  Level FlightAware Approximate
04:04AM 16.4642 -84.4738 332° Northwest  Level FlightAware Approximate
04:05AM 16.5772 -84.5377 332° Northwest  Level FlightAware Approximate
04:06AM 16.6901 -84.6016 332° Northwest  Level FlightAware Approximate
04:07AM 16.8008 -84.6697 329° Northwest  Level FlightAware Approximate
04:08AM 16.9108 -84.7392 329° Northwest  Level FlightAware Approximate
04:09AM 17.0208 -84.8087 329° Northwest  Level FlightAware Approximate
04:10AM 17.1326 -84.8749 331° Northwest  Level FlightAware Approximate
04:11AM 17.2447 -84.9407 331° Northwest  Level FlightAware Approximate
04:12AM 17.3567 -85.0066 331° Northwest  Level FlightAware Approximate
04:13AM 17.4688 -85.0726 331° Northwest  Level FlightAware Approximate
04:14AM 17.5808 -85.1386 331° Northwest  Level FlightAware Approximate
04:15AM 17.6961 -85.1980 335° Northwest  Level FlightAware Approximate
04:16AM 17.8084 -85.2634 329° Northwest  Level FlightAware Approximate
04:17AM 17.9189 -85.3324 329° Northwest  Level FlightAware Approximate
04:17AM 18.4030 -85.8450 329° Northwest 500 575 36,000  Level FlightAware
04:17AM 18.4810 -85.8790 338° Northwest 499 574 36,000  Level FlightAware
04:18AM 18.5570 -85.9110 338° Northwest 500 575 36,000  Level FlightAware
04:18AM 18.6260 -85.9410 338° Northwest 501 577 36,000  Level FlightAware
04:19AM 18.7050 -85.9740 338° Northwest 502 578 36,000  Level FlightAware
04:19AM 18.7810 -86.0070 338° Northwest 503 579 36,000  Level FlightAware
04:20AM 18.8550 -86.0380 338° Northwest 504 580 36,000  Level FlightAware
04:21AM 18.9340 -86.0720 338° Northwest 503 579 36,000  Level FlightAware
04:21AM 19.0130 -86.1060 338° Northwest 503 579 36,000  Level FlightAware
04:22AM 19.0820 -86.1360 338° Northwest 503 579 36,000  Level FlightAware
04:22AM 19.1590 -86.1690 338° Northwest 504 580 36,000  Level FlightAware
04:23AM 19.2370 -86.2030 338° Northwest 505 581 36,000  Level FlightAware
04:24AM 19.3050 -86.2320 338° Northwest 507 583 36,000  Level FlightAware
04:24AM 19.3850 -86.2670 338° Northwest 508 585 36,000  Level FlightAware
04:25AM 19.4640 -86.3010 338° Northwest 508 585 36,000  Level FlightAware
04:25AM 19.5410 -86.3340 338° Northwest 507 583 36,000  Level FlightAware
04:26AM 19.6200 -86.3700 337° Northwest 507 583 36,000  Level FlightAware
04:26AM 19.6840 -86.4070 331° Northwest 506 582 36,000  Level FlightAware
04:27AM 19.7590 -86.4530 330° Northwest 508 585 36,000  Level FlightAware
04:28AM 19.8330 -86.4980 330° Northwest 508 585 36,000  Level FlightAware
04:28AM 19.8990 -86.5390 330° Northwest 507 583 36,000  Level FlightAware
04:29AM 19.9710 -86.5830 330° Northwest 505 581 36,000  Level FlightAware
04:29AM 20.0490 -86.6300 330° Northwest 502 578 36,000  Level FlightAware
04:30AM 20.1130 -86.6690 330° Northwest 500 575 36,000  Level FlightAware
04:31AM 20.1850 -86.7140 330° Northwest 500 575 36,000  Level FlightAware
04:31AM 20.2530 -86.7550 331° Northwest 498 573 36,000  Level FlightAware
04:32AM 20.3170 -86.7940 330° Northwest 496 571 36,000  Level FlightAware
04:32AM 20.3920 -86.8410 330° Northwest 493 567 36,000  Level FlightAware
04:33AM 20.4640 -86.8850 330° Northwest 492 566 36,000  Level FlightAware
04:34AM 20.5340 -86.9310 328° Northwest 492 566 36,000  Level FlightAware
04:34AM 20.6010 -86.9790 326° Northwest 494 568 36,000  Level FlightAware
04:35AM 20.6630 -87.0230 326° Northwest 496 571 36,000  Level FlightAware
04:35AM 20.7320 -87.0720 326° Northwest 495 570 36,000  Level FlightAware
04:36AM 20.8010 -87.1210 326° Northwest 496 571 36,000  Level FlightAware
04:36AM 20.8690 -87.1690 327° Northwest 497 572 36,000  Level FlightAware
04:37AM 20.9290 -87.2130 326° Northwest 498 573 36,000  Level FlightAware
04:38AM 21.0010 -87.2640 327° Northwest 497 572 36,000  Level FlightAware
04:38AM 21.0620 -87.3080 326° Northwest 497 572 36,000  Level FlightAware
04:39AM 21.1280 -87.3550 326° Northwest 497 572 36,000  Level FlightAware
04:39AM 21.1940 -87.4030 326° Northwest 498 573 36,000  Level FlightAware
04:40AM 21.2700 -87.4580 326° Northwest 498 573 36,000  Level FlightAware
04:41AM 21.3380 -87.5070 326° Northwest 498 573 36,000  Level FlightAware
04:41AM 21.4000 -87.5510 327° Northwest 497 572 36,000  Level FlightAware
04:42AM 21.4700 -87.6020 326° Northwest 496 571 36,000  Level FlightAware
04:42AM 21.5350 -87.6490 326° Northwest 496 571 36,000  Level FlightAware
04:43AM 21.6080 -87.7010 326° Northwest 496 571 36,000  Level FlightAware
04:43AM 21.6680 -87.7450 326° Northwest 496 571 36,000  Level FlightAware
04:44AM 21.7380 -87.7960 326° Northwest 496 571 36,000  Level FlightAware
04:45AM 21.7960 -87.8380 326° Northwest 495 570 36,000  Level FlightAware
04:45AM 21.8650 -87.8890 326° Northwest 494 568 36,000  Level FlightAware
04:46AM 21.9130 -87.9250 325° Northwest 494 568 36,000  Level FlightAware
04:46AM 21.9840 -87.9780 325° Northwest 495 570 36,000  Level FlightAware
04:47AM 22.0550 -88.0300 326° Northwest 497 572 36,000  Level FlightAware
04:47AM 22.1210 -88.0790 325° Northwest 498 573 36,000  Level FlightAware
04:48AM 22.1880 -88.1290 325° Northwest 498 573 36,000  Level FlightAware
04:49AM 22.2560 -88.1790 326° Northwest 497 572 36,000  Level FlightAware
04:49AM 22.3360 -88.2370 326° Northwest 496 571 36,000  Level FlightAware
04:50AM 22.4120 -88.2930 326° Northwest 496 571 36,000  Level FlightAware
04:51AM 22.5070 -88.3630 326° Northwest 498 573 36,000  Level FlightAware
04:51AM 22.5760 -88.4130 326° Northwest 500 575 36,000  Level FlightAware
04:52AM 22.6450 -88.4640 326° Northwest 501 577 36,000  Level FlightAware
04:52AM 22.7040 -88.5080 325° Northwest 500 575 36,000  Level FlightAware
04:53AM 22.7700 -88.5560 326° Northwest 498 573 36,000  Level FlightAware
04:54AM 22.8400 -88.6080 326° Northwest 497 572 36,000  Level FlightAware
04:54AM 22.9130 -88.6620 326° Northwest 498 573 36,000  Level FlightAware
04:55AM 22.9690 -88.7030 326° Northwest 498 573 36,000  Level FlightAware
04:55AM 22.9850 -88.7150 325° Northwest 498 573 36,000  Level FlightAware
04:56AM 23.1260 -88.8200 326° Northwest 495 570 36,000  Level FlightAware
04:57AM 23.1860 -88.8640 326° Northwest 494 568 36,000  Level FlightAware
04:57AM 23.2150 -88.8860 325° Northwest 494 568 36,000  Level FlightAware
04:58AM 23.2690 -88.9260 326° Northwest 493 567 36,000  Level FlightAware
04:59AM 23.3420 -88.9800 326° Northwest 494 568 36,000  Level FlightAware
04:59AM 23.4650 -89.0720 326° Northwest 495 570 36,000  Level FlightAware
05:00AM 23.4880 -89.0890 326° Northwest 494 568 36,000  Level FlightAware
05:00AM 23.6080 -89.1800 325° Northwest 493 567 36,000  Level FlightAware
05:01AM 23.6260 -89.1930 327° Northwest 494 568 36,000  Level FlightAware
05:02AM 23.6860 -89.2380 326° Northwest 493 567 36,000  Level FlightAware
05:02AM 23.7640 -89.2970 325° Northwest 492 566 36,000  Level FlightAware
05:03AM 23.8250 -89.3430 325° Northwest 492 566 36,000  Level FlightAware
05:03AM 23.8830 -89.3870 325° Northwest 492 566 36,000  Level FlightAware
05:04AM 23.9410 -89.4320 325° Northwest 492 566 36,000  Level FlightAware
05:05AM 24.0330 -89.4990 326° Northwest 492 566 36,000  Level FlightAware
05:05AM 24.1150 -89.5610 325° Northwest 492 566 36,000  Level FlightAware
05:06AM 24.1920 -89.6190 326° Northwest 493 567 36,000  Level FlightAware
05:07AM 24.2930 -89.6950 326° Northwest 492 566 36,000  Level FlightAware
05:08AM 24.3500 -89.7390 325° Northwest 492 566 36,000  Level FlightAware
05:08AM 24.4070 -89.7830 325° Northwest 492 566 36,000  Level FlightAware
05:09AM 24.4640 -89.8270 325° Northwest 492 566 36,000  Level FlightAware
05:10AM 24.5230 -89.8720 325° Northwest 492 566 36,000  Level FlightAware
05:10AM 24.5800 -89.9160 325° Northwest 492 566 36,000  Level FlightAware
05:11AM 24.6370 -89.9600 325° Northwest 492 566 36,000  Level FlightAware
05:11AM 24.6990 -90.0070 325° Northwest 492 566 36,000  Level FlightAware
05:12AM 24.7560 -90.0510 325° Northwest 492 566 36,000  Level FlightAware
05:13AM 24.8130 -90.0950 325° Northwest 492 566 36,000  Level FlightAware
05:13AM 24.8700 -90.1390 325° Northwest 492 566 36,000  Level FlightAware
05:14AM 24.9270 -90.1830 325° Northwest 492 566 36,000  Level FlightAware
05:14AM 24.9860 -90.2290 325° Northwest 492 566 36,000  Level FlightAware
05:15AM 25.0440 -90.2740 325° Northwest 492 566 36,000  Level FlightAware
05:16AM 25.1010 -90.3180 325° Northwest 492 566 36,000  Level FlightAware
05:16AM 25.1590 -90.3620 326° Northwest 492 566 36,000  Level FlightAware
05:19AM 25.3924 -90.5398 325° Northwest  Level FlightAware Approximate
05:20AM 25.4974 -90.6206 325° Northwest  Level FlightAware Approximate
05:21AM 25.6024 -90.7015 325° Northwest  Level FlightAware Approximate
05:22AM 25.7073 -90.7826 325° Northwest  Level FlightAware Approximate
05:23AM 25.8121 -90.8638 325° Northwest  Level FlightAware Approximate
05:24AM 25.9169 -90.9452 325° Northwest  Level FlightAware Approximate
05:25AM 26.0217 -91.0267 325° Northwest  Level FlightAware Approximate
05:26AM 26.1264 -91.1084 325° Northwest  Level FlightAware Approximate
05:27AM 26.2311 -91.1902 325° Northwest  Level FlightAware Approximate
05:28AM 26.3357 -91.2721 325° Northwest  Level FlightAware Approximate
05:29AM 26.4386 -91.3569 323° Northwest  Level FlightAware Approximate
05:30AM 26.5411 -91.4422 323° Northwest  Level FlightAware Approximate
05:30AM 26.9506 -91.7678 324° Northwest 489 563 36,000  Level Houston Center
05:31AM 26.6436 -91.5277 323° Northwest  Level FlightAware Approximate
05:31AM 27.0483 -91.8478 324° Northwest 488 562 36,000  Level Houston Center
05:32AM 26.7460 -91.6134 323° Northwest  Level FlightAware Approximate
05:32AM 27.1592 -91.9367 324° Northwest 489 563 35,900  Level Houston Center
05:33AM 26.8518 -91.6938 326° Northwest  Level FlightAware Approximate
05:33AM 27.2686 -92.0261 324° Northwest 488 562 35,900  Level Houston Center
05:34AM 26.9577 -91.7742 326° Northwest  Level FlightAware Approximate
05:34AM 27.3781 -92.1153 324° Northwest 486 559 35,900  Level Houston Center
05:35AM 27.0635 -91.8547 326° Northwest  Level FlightAware Approximate
05:35AM 27.4872 -92.2025 325° Northwest 483 556 35,900  Level Houston Center
05:36AM 27.1693 -91.9355 324° Northwest  Level FlightAware Approximate
05:36AM 27.6006 -92.2869 327° Northwest 487 560 35,900  Level Houston Center
05:37AM 27.7128 -92.3717 326° Northwest 485 558 35,900  Level Houston Center
05:38AM 27.8256 -92.4556 327° Northwest 485 558 35,900  Level Houston Center
05:39AM 27.9372 -92.5406 326° Northwest 484 557 35,900  Level Houston Center
05:40AM 28.0469 -92.6256 326° Northwest 480 552 35,900  Level Houston Center
05:41AM 28.1586 -92.7097 326° Northwest 482 555 35,900  Level Houston Center
05:42AM 28.2694 -92.7942 326° Northwest 480 552 36,000  Climbing Houston Center
05:43AM 28.3806 -92.8778 326° Northwest 480 552 35,900  Descending Houston Center
05:44AM 28.4906 -92.9606 327° Northwest 476 548 36,000  Climbing Houston Center
05:50AM 29.1523 -93.4701 327° Northwest 474 545 36,000  Level FlightAware ADS-B
05:51AM 29.1954 -93.5037 326° Northwest 474 545 36,000  Level FlightAware ADS-B
05:51AM 29.2688 -93.5609 326° Northwest 474 545 36,000  Level FlightAware ADS-B
05:52AM 29.3324 -93.6105 326° Northwest 474 545 36,000  Level FlightAware ADS-B
05:52AM 29.3855 -93.6521 326° Northwest 474 545 36,000  Level FlightAware ADS-B
05:53AM 29.4413 -93.6956 326° Northwest 474 545 36,000  Level FlightAware ADS-B
05:53AM 29.5128 -93.7516 326° Northwest 474 545 36,000  Level FlightAware ADS-B
05:54AM 29.5942 -93.8155 326° Northwest 475 547 36,000  Level FlightAware ADS-B
05:55AM 29.6480 -93.8600 324° Northwest 474 545 36,000  Level FlightAware
05:55AM 29.7320 -93.9240 327° Northwest 473 544 36,000  Level FlightAware
05:56AM 29.7980 -93.9760 326° Northwest 471 542 36,000  Level FlightAware
05:57AM 29.8548 -94.0209 326° Northwest 470 541 36,000  Level FlightAware ADS-B
05:57AM 29.9160 -94.0690 326° Northwest 468 539 36,000  Level FlightAware
05:58AM 29.9880 -94.1260 326° Northwest 468 539 36,000  Level FlightAware
05:58AM 30.0460 -94.1730 325° Northwest 470 541 36,000  Level FlightAware
05:59AM 30.1120 -94.2240 326° Northwest 469 540 36,000  Level FlightAware
06:00AM 30.1740 -94.2740 325° Northwest 467 537 36,000  Level FlightAware
06:00AM 30.2300 -94.3190 325° Northwest 465 535 36,000  Level FlightAware
06:01AM 30.2930 -94.3690 326° Northwest 463 533 36,000  Level FlightAware
06:01AM 30.3610 -94.4240 325° Northwest 462 532 36,000  Level FlightAware
06:02AM 30.4230 -94.4730 326° Northwest 461 531 36,000  Level FlightAware
06:02AM 30.4810 -94.5200 325° Northwest 461 531 36,000  Level FlightAware
06:03AM 30.5420 -94.5690 325° Northwest 461 531 36,000  Level FlightAware
06:04AM 30.6080 -94.6220 325° Northwest 461 531 36,000  Level FlightAware
06:04AM 30.6620 -94.6660 325° Northwest 461 531 36,000  Level FlightAware
06:05AM 30.7260 -94.7170 326° Northwest 461 531 36,000  Level FlightAware
06:05AM 30.7880 -94.7670 325° Northwest 462 532 36,000  Level FlightAware
06:06AM 30.8530 -94.8200 325° Northwest 463 533 36,000  Level FlightAware
06:07AM 30.9080 -94.8650 325° Northwest 463 533 36,000  Level FlightAware
06:07AM 30.9730 -94.9180 325° Northwest 462 532 36,000  Level FlightAware
06:08AM 31.0270 -94.9620 325° Northwest 463 533 36,000  Level FlightAware
06:08AM 31.0940 -95.0160 325° Northwest 462 532 36,000  Level FlightAware
06:09AM 31.1640 -95.0730 325° Northwest 462 532 36,000  Level FlightAware
06:10AM 31.2310 -95.1280 325° Northwest 462 532 36,000  Level FlightAware
06:10AM 31.2850 -95.1730 325° Northwest 462 532 36,000  Level FlightAware
06:10AM 31.3150 -95.2060 317° Northwest 458 527 36,000  Level FlightAware
06:11AM 31.3900 -95.2920 316° Northwest 459 528 36,000 -240 Level FlightAware
06:12AM 31.4440 -95.3560 315° West 451 519 35,700 -1,320 Descending FlightAware
06:12AM 31.4950 -95.4150 315° West 460 529 34,500 -1,980 Descending FlightAware
06:13AM 31.5490 -95.4770 316° Northwest 464 534 33,500 -1,680 Descending FlightAware
06:14AM 31.6050 -95.5410 316° Northwest 465 535 32,500 -1,920 Descending FlightAware
06:14AM 31.6610 -95.6040 316° Northwest 456 525 31,200 -1,980 Descending FlightAware
06:15AM 31.7080 -95.6590 315° West 448 516 30,300 -1,980 Descending FlightAware
06:15AM 31.7610 -95.7200 316° Northwest 441 507 29,000 -2,220 Descending FlightAware
06:16AM 31.8130 -95.7810 315° West 435 501 27,700 -2,100 Descending FlightAware
06:17AM 31.8600 -95.8360 315° West 428 493 26,600 -2,040 Descending FlightAware
06:17AM 31.9080 -95.8920 315° West 421 484 25,400 -2,040 Descending FlightAware
06:18AM 31.9580 -95.9510 315° West 412 474 24,200 -1,920 Descending FlightAware
06:18AM 32.0060 -96.0060 316° Northwest 404 465 23,100 -1,860 Descending FlightAware
06:19AM 32.0500 -96.0590 314° West 398 458 22,100 -1,920 Descending FlightAware
06:19AM 32.0970 -96.1130 316° Northwest 392 451 20,900 -1,860 Descending FlightAware
06:20AM 32.1410 -96.1650 315° West 386 444 19,900 -1,800 Descending FlightAware
06:21AM 32.1880 -96.2200 315° West 381 438 18,800 -1,740 Descending FlightAware
06:21AM 32.2270 -96.2670 314° West 376 433 17,900 -1,740 Descending FlightAware
06:22AM 32.2690 -96.3160 315° West 371 427 16,900 -1,740 Descending FlightAware
06:22AM 32.3100 -96.3650 315° West 366 421 15,900 -1,800 Descending FlightAware
06:23AM 32.3550 -96.4180 315° West 362 417 14,800 -1,740 Descending FlightAware
06:24AM 32.3970 -96.4670 315° West 359 413 13,800 -1,980 Descending FlightAware
06:24AM 32.4340 -96.5120 314° West 363 418 12,600 -1,980 Descending FlightAware
06:25AM 32.4770 -96.5630 315° West 359 413 11,600 -1,320 Descending FlightAware
06:25AM 32.5200 -96.6130 316° Northwest 354 407 11,000 -540 Descending FlightAware
06:26AM 32.5610 -96.6620 315° West 353 406 11,000  Level FlightAware
06:26AM 32.5980 -96.7070 314° West 354 407 11,000  Level FlightAware
06:27AM 32.6400 -96.7560 316° Northwest 353 406 11,000  Level FlightAware
06:28AM 32.6810 -96.8060 314° West 352 405 11,000  Level FlightAware
06:28AM 32.7200 -96.8530 315° West 319 367 11,000  Level FlightAware
06:29AM 32.7530 -96.8890 317° Northwest 289 333 11,000  Level FlightAware
06:29AM 32.7620 -96.8950 331° Northwest 283 326 11,000  Level FlightAware
06:29AM 32.7830 -96.9020 344° North 275 316 11,000 -300 Level FlightAware
06:30AM 32.8230 -96.9030 359° North 273 314 10,800 -840 Descending FlightAware
06:30AM 32.8690 -96.9040 359° North 272 313 10,100 -1,020 Descending FlightAware
06:31AM 32.8860 -96.9040 360° North 266 306 10,000 -720 Descending FlightAware
06:31AM 32.9100 -96.9040 360° North 257 296 9,700 -960 Descending FlightAware
06:31AM 32.9380 -96.9040 360° North 252 290 9,300 -1,200 Descending FlightAware
06:31AM 32.9520 -96.9040 360° North 251 289 9,000 -1,320 Descending FlightAware
06:32AM 32.9750 -96.9050 358° North 251 289 8,600 -1,560 Descending FlightAware
06:32AM 32.9990 -96.9050 360° North 248 285 8,000 -2,040 Descending FlightAware
06:33AM 33.0270 -96.9060 358° North 254 292 7,100 -2,220 Descending FlightAware
06:33AM 33.0460 -96.9060 360° North 257 296 6,500 -2,040 Descending FlightAware
06:33AM 33.0660 -96.9070 358° North 257 296 6,000 -1,920 Descending FlightAware
06:33AM 33.0910 -96.9070 360° North 256 295 5,300 -2,040 Descending FlightAware
06:34AM 33.1090 -96.9100 352° North 256 295 4,800 -1,920 Descending FlightAware
06:34AM 33.1130 -96.9130 328° Northwest 253 291 4,700 -1,800 Descending FlightAware
06:34AM 33.1190 -96.9170 331° Northwest 247 284 4,500 -1,500 Descending FlightAware
06:34AM 33.1260 -96.9270 310° West 230 265 4,300 -1,320 Descending FlightAware
06:34AM 33.1290 -96.9370 290° West 217 250 4,100 -1,500 Descending FlightAware
06:34AM 33.1290 -96.9450 270° West 209 241 3,900 -1,380 Descending FlightAware
06:35AM 33.1300 -96.9680 273° West 208 239 3,500 -1,140 Descending FlightAware
06:35AM 33.1300 -96.9820 270° West 205 236 3,300 -900 Descending FlightAware
06:35AM 33.1310 -97.0060 273° West 201 231 3,000 -480 Descending FlightAware
06:36AM 33.1240 -97.0320 252° West 170 196 2,900 -360 Descending FlightAware
06:36AM 33.1200 -97.0360 220° Southwest 165 190 2,800 -900 Descending FlightAware
06:36AM 33.1060 -97.0440 206° Southwest 165 190 2,500 -660 Descending FlightAware
06:36AM 33.0940 -97.0510 206° Southwest 171 197 2,400 -240 Descending FlightAware
06:37AM 33.0870 -97.0530 193° South 169 194 2,400  Level FlightAware
06:37AM 33.0740 -97.0540 184° South 165 190 2,400  Level FlightAware
06:37AM 33.0600 -97.0540 180° South 158 182 2,400  Level FlightAware
06:38AM 33.0410 -97.0540 180° South 159 183 2,400  Level FlightAware
06:38AM 33.0280 -97.0540 180° South 155 178 2,400  Level FlightAware
06:38AM 33.0120 -97.0540 180° South 157 181 2,400 -360 Level FlightAware
06:39AM 33.0000 -97.0540 180° South 154 177 2,200 -660 Descending FlightAware
06:39AM 32.9870 -97.0540 180° South 139 160 2,000 -780 Descending FlightAware
06:39AM 32.9740 -97.0540 180° South 132 152 1,700 -840 Descending FlightAware
06:39AM 32.9680 -97.0540 180° South 132 152 1,600 -600 Descending FlightAware
06:40AM 32.9540 -97.0540 180° South 130 150 1,400 -600 Descending FlightAware
06:40AM 32.9400 -97.0550 183° South 132 152 1,100 -360 Descending FlightAware
06:41AM 32.9170 -97.0550 180° South 137 158 1,000 -180 Descending FlightAware